Time;durP1;ratioP1;P1;durP2;ratioP2;P2;SDS_P1;SDS_P2;PMS_P1;PMS_P2;Temp;Humidity;BMP_temperature;BMP_pressure;BME280_temperature;BME280_humidity;BME280_pressure;Samples;Min_cycle;Max_cycle;Signal;HPM_P1;HPM_P2
2023/07/03 00:02:16;;;;;;;6.72;2.45;;;18.60;1.00;;;;;;5116351;28;20499;-58
2023/07/03 00:04:45;;;;;;;6.80;2.80;;;18.60;1.00;;;;;;5118511;28;20447;-58
2023/07/03 00:07:14;;;;;;;6.05;2.65;;;18.50;1.00;;;;;;5118068;28;20823;-57
2023/07/03 00:09:41;;;;;;;8.30;2.45;;;18.50;1.00;;;;;;5116892;28;20430;-54
2023/07/03 00:12:10;;;;;;;7.90;2.72;;;18.50;1.00;;;;;;5117356;28;20431;-57
2023/07/03 00:14:37;;;;;;;6.32;2.80;;;18.50;1.00;;;;;;5118257;28;20482;-57
2023/07/03 00:17:07;;;;;;;5.18;2.20;;;18.40;1.00;;;;;;5117925;28;20453;-58
2023/07/03 00:19:34;;;;;;;5.32;2.75;;;18.50;1.00;;;;;;5117921;28;20440;-58
2023/07/03 00:22:01;;;;;;;5.63;3.00;;;18.50;1.00;;;;;;5118103;28;20427;-57
2023/07/03 00:24:29;;;;;;;7.05;3.00;;;18.50;1.00;;;;;;5117974;28;20537;-56
2023/07/03 00:26:57;;;;;;;7.13;2.85;;;18.40;1.00;;;;;;5117927;28;20548;-60
2023/07/03 00:29:24;;;;;;;6.10;2.40;;;18.40;1.00;;;;;;5118090;28;20908;-56
2023/07/03 00:31:51;;;;;;;6.53;2.45;;;18.40;1.00;;;;;;5118281;28;20474;-56
2023/07/03 00:34:19;;;;;;;8.90;2.92;;;18.40;1.00;;;;;;5117824;28;20483;-58
2023/07/03 00:36:47;;;;;;;5.83;2.60;;;18.30;1.00;;;;;;5118056;28;20427;-57
2023/07/03 00:39:14;;;;;;;7.23;2.60;;;18.30;1.00;;;;;;5117140;28;20432;-56
2023/07/03 00:41:41;;;;;;;6.90;2.80;;;18.30;1.00;;;;;;5116947;28;20898;-59
2023/07/03 00:44:11;;;;;;;7.40;2.93;;;18.20;1.00;;;;;;5117081;28;20793;-57
2023/07/03 00:46:39;;;;;;;5.07;2.40;;;18.20;1.00;;;;;;5117061;28;20434;-59
2023/07/03 00:49:07;;;;;;;6.72;2.05;;;18.20;1.00;;;;;;5117128;28;20477;-58
2023/07/03 00:51:35;;;;;;;6.00;2.00;;;18.10;5.50;;;;;;5117679;28;20435;-55
2023/07/03 00:54:02;;;;;;;6.45;2.60;;;18.10;16.40;;;;;;5117225;28;20848;-58
2023/07/03 00:56:29;;;;;;;5.10;2.50;;;18.10;13.10;;;;;;5116768;28;20697;-58
2023/07/03 00:58:57;;;;;;;6.30;2.70;;;18.10;21.20;;;;;;5116847;28;20436;-57
2023/07/03 01:01:34;;;;;;;6.53;2.35;;;18.10;17.20;;;;;;5116948;28;20424;-58
2023/07/03 01:04:07;;;;;;;8.50;3.10;;;18.10;35.70;;;;;;5116579;28;20455;-58
2023/07/03 01:06:43;;;;;;;6.15;2.50;;;18.10;29.70;;;;;;5117159;28;20428;-59
2023/07/03 01:09:13;;;;;;;7.45;2.40;;;18.10;25.90;;;;;;5116409;28;20420;-58
2023/07/03 01:11:42;;;;;;;7.03;2.70;;;18.00;26.90;;;;;;5117187;28;20431;-58
2023/07/03 01:14:11;;;;;;;7.53;2.33;;;18.10;34.90;;;;;;5116598;27;20845;-57
2023/07/03 01:16:39;;;;;;;6.10;2.45;;;18.00;32.40;;;;;;5117523;28;20420;-56
2023/07/03 01:19:13;;;;;;;5.40;2.50;;;18.10;32.00;;;;;;5116187;28;20746;-57
2023/07/03 01:21:52;;;;;;;7.15;2.72;;;18.10;17.50;;;;;;5116793;28;20431;-57
2023/07/03 01:24:33;;;;;;;4.93;2.60;;;18.20;8.90;;;;;;5116933;28;20413;-57
2023/07/03 01:27:02;;;;;;;6.78;2.55;;;18.20;1.00;;;;;;5116306;28;20905;-57
2023/07/03 01:29:31;;;;;;;5.28;2.30;;;18.20;2.40;;;;;;5116545;28;20420;-55
2023/07/03 01:31:59;;;;;;;4.90;2.30;;;18.20;1.00;;;;;;5117115;28;20424;-58
2023/07/03 01:34:28;;;;;;;7.45;2.80;;;18.20;10.40;;;;;;5116158;28;20424;-56
2023/07/03 01:36:58;;;;;;;6.72;2.80;;;18.30;2.20;;;;;;5116547;28;20462;-58
2023/07/03 01:39:26;;;;;;;6.20;2.93;;;18.30;1.00;;;;;;5116081;28;20486;-60
2023/07/03 01:41:55;;;;;;;6.87;2.90;;;18.30;1.00;;;;;;5115730;28;20422;-57
2023/07/03 01:44:22;;;;;;;5.15;1.90;;;18.30;1.00;;;;;;5115755;28;20432;-58
2023/07/03 01:46:49;;;;;;;4.78;2.30;;;18.30;1.00;;;;;;5115764;28;20864;-58
2023/07/03 01:49:16;;;;;;;6.85;2.75;;;18.40;1.00;;;;;;5115773;28;20428;-56
2023/07/03 01:51:50;;;;;;;7.38;2.13;;;18.40;1.00;;;;;;5116213;28;20497;-57
2023/07/03 01:54:27;;;;;;;5.55;2.10;;;18.40;1.00;;;;;;5116080;28;20412;-58
2023/07/03 01:57:00;;;;;;;10.82;2.47;;;18.40;1.00;;;;;;5115897;28;20473;-56
2023/07/03 01:59:29;;;;;;;5.90;2.50;;;18.40;1.00;;;;;;5115907;28;20432;-55
2023/07/03 02:02:01;;;;;;;6.90;2.00;;;18.40;1.00;;;;;;5116313;28;20430;-55
2023/07/03 02:04:33;;;;;;;6.28;2.40;;;18.40;1.00;;;;;;5114950;28;20435;-58
2023/07/03 02:07:01;;;;;;;8.30;2.33;;;18.40;1.00;;;;;;5116575;28;20424;-59
2023/07/03 02:09:28;;;;;;;6.53;2.20;;;18.30;1.00;;;;;;5115453;28;20412;-56
2023/07/03 02:11:57;;;;;;;5.40;2.63;;;18.30;4.00;;;;;;5114733;28;20420;-57
2023/07/03 02:14:24;;;;;;;6.00;2.50;;;18.30;1.00;;;;;;5115526;28;21023;-57
2023/07/03 02:16:52;;;;;;;6.78;2.65;;;18.40;1.00;;;;;;5116316;28;20431;-58
2023/07/03 02:19:22;;;;;;;5.22;2.40;;;18.50;1.00;;;;;;5114141;28;20530;-58
2023/07/03 02:21:49;;;;;;;7.05;2.33;;;18.60;1.00;;;;;;5115596;28;20427;-58
2023/07/03 02:24:16;;;;;;;5.75;2.05;;;18.70;1.00;;;;;;5114393;28;20420;-57
2023/07/03 02:26:43;;;;;;;5.03;2.00;;;18.70;1.00;;;;;;5114396;28;20473;-58
2023/07/03 02:29:12;;;;;;;5.00;1.83;;;18.80;1.00;;;;;;5115369;28;20516;-58
2023/07/03 02:31:39;;;;;;;5.70;2.00;;;18.90;1.00;;;;;;5115947;28;20424;-55
2023/07/03 02:34:05;;;;;;;6.18;2.08;;;18.90;1.00;;;;;;5115032;28;20428;-57
2023/07/03 02:36:34;;;;;;;5.68;2.25;;;18.90;1.00;;;;;;5113545;28;20416;-57
2023/07/03 02:39:04;;;;;;;6.15;2.47;;;18.90;1.00;;;;;;5114489;28;20424;-59
2023/07/03 02:41:31;;;;;;;5.53;2.30;;;18.90;1.00;;;;;;5115296;28;20420;-56
2023/07/03 02:43:58;;;;;;;5.72;2.42;;;19.00;1.00;;;;;;5115501;28;20424;-56
2023/07/03 02:46:27;;;;;;;4.88;2.05;;;18.90;1.00;;;;;;5115626;28;20488;-59
2023/07/03 02:48:55;;;;;;;8.23;3.05;;;19.00;1.00;;;;;;5115044;28;20420;-55
2023/07/03 02:51:22;;;;;;;5.35;2.35;;;19.00;1.00;;;;;;5115576;28;20808;-58
2023/07/03 02:53:49;;;;;;;5.23;2.10;;;19.00;1.00;;;;;;5114873;28;20412;-56
2023/07/03 02:56:16;;;;;;;5.07;2.50;;;19.00;1.00;;;;;;5115073;28;20428;-59
2023/07/03 02:58:43;;;;;;;5.40;2.35;;;19.00;1.00;;;;;;5114673;28;20883;-57
2023/07/03 03:01:10;;;;;;;6.03;2.55;;;19.00;1.00;;;;;;5114843;28;20424;-54
2023/07/03 03:03:38;;;;;;;6.70;2.70;;;19.00;1.00;;;;;;5115206;28;20536;-56
2023/07/03 03:06:05;;;;;;;5.68;2.25;;;19.00;1.00;;;;;;5115483;28;20420;-57
2023/07/03 03:08:32;;;;;;;5.17;2.10;;;19.00;1.00;;;;;;5113423;28;20481;-59
2023/07/03 03:11:00;;;;;;;6.50;1.98;;;19.00;1.00;;;;;;5114638;28;20432;-56
2023/07/03 03:13:26;;;;;;;5.57;2.00;;;19.00;1.00;;;;;;5114337;28;20782;-57
2023/07/03 03:15:54;;;;;;;5.32;2.10;;;19.00;1.00;;;;;;5115405;28;20889;-56
2023/07/03 03:18:21;;;;;;;6.05;2.00;;;19.00;1.00;;;;;;5114824;28;20828;-58
2023/07/03 03:20:49;;;;;;;8.13;2.50;;;19.00;1.00;;;;;;5114807;28;20476;-58
2023/07/03 03:23:17;;;;;;;7.27;2.10;;;19.10;1.00;;;;;;5114177;28;20473;-57
2023/07/03 03:25:44;;;;;;;6.82;2.20;;;19.10;1.00;;;;;;5113315;28;20518;-56
2023/07/03 03:28:11;;;;;;;7.65;2.50;;;19.10;1.00;;;;;;5114074;28;20442;-58
2023/07/03 03:30:39;;;;;;;7.20;2.30;;;19.10;1.00;;;;;;5114211;28;20428;-58
2023/07/03 03:33:05;;;;;;;4.55;2.03;;;19.10;1.00;;;;;;5114191;28;20464;-57
2023/07/03 03:35:32;;;;;;;5.32;2.40;;;19.00;1.00;;;;;;5114140;28;20435;-58
2023/07/03 03:38:01;;;;;;;4.60;1.67;;;19.00;1.00;;;;;;5116969;28;20923;-55
2023/07/03 03:40:28;;;;;;;5.00;2.45;;;19.10;1.00;;;;;;5117857;28;20604;-58
2023/07/03 03:42:55;;;;;;;5.53;2.28;;;19.10;1.00;;;;;;5118504;28;20424;-54
2023/07/03 03:45:22;;;;;;;3.72;1.98;;;19.10;1.00;;;;;;5119184;28;20416;-58
2023/07/03 03:47:51;;;;;;;6.40;2.10;;;19.00;1.00;;;;;;5118643;28;20839;-58
2023/07/03 03:50:18;;;;;;;4.47;1.85;;;19.10;1.00;;;;;;5118512;28;20424;-57
2023/07/03 03:52:46;;;;;;;6.20;2.20;;;19.10;1.00;;;;;;5118765;28;20477;-57
2023/07/03 03:55:14;;;;;;;5.70;1.70;;;19.10;1.00;;;;;;5118515;28;20423;-58
2023/07/03 03:57:41;;;;;;;5.03;2.10;;;19.00;1.00;;;;;;5118465;28;20420;-58
2023/07/03 04:00:15;;;;;;;4.25;1.90;;;19.10;1.00;;;;;;5118064;28;20435;-56
2023/07/03 04:02:43;;;;;;;4.47;1.98;;;19.10;1.00;;;;;;5118167;28;20424;-55
2023/07/03 04:05:11;;;;;;;4.75;2.03;;;19.20;1.00;;;;;;5118407;28;20877;-57
2023/07/03 04:07:39;;;;;;;5.20;2.13;;;19.20;1.00;;;;;;5118199;28;20451;-56
2023/07/03 04:10:07;;;;;;;5.05;2.20;;;19.10;1.00;;;;;;5117671;28;20576;-58
2023/07/03 04:12:35;;;;;;;5.70;1.90;;;19.10;1.00;;;;;;5118225;28;20451;-57
2023/07/03 04:15:03;;;;;;;4.28;1.90;;;19.10;1.00;;;;;;5117731;28;20769;-57
2023/07/03 04:17:30;;;;;;;7.32;2.03;;;19.10;1.00;;;;;;5117032;28;20803;-57
2023/07/03 04:19:57;;;;;;;5.67;1.80;;;19.10;1.00;;;;;;5117953;28;20442;-58
2023/07/03 04:22:25;;;;;;;4.93;2.13;;;19.00;1.00;;;;;;5117585;28;20488;-58
2023/07/03 04:24:52;;;;;;;4.65;2.15;;;19.10;1.00;;;;;;5117848;28;20824;-56
2023/07/03 04:27:20;;;;;;;5.60;1.80;;;19.10;1.00;;;;;;5117824;28;20723;-54
2023/07/03 04:29:48;;;;;;;4.35;2.00;;;19.10;1.00;;;;;;5116908;28;20419;-58
2023/07/03 04:32:15;;;;;;;3.80;1.95;;;19.00;1.00;;;;;;5117581;28;20454;-56
2023/07/03 04:34:42;;;;;;;3.90;1.60;;;18.90;1.00;;;;;;5117296;28;20491;-57
2023/07/03 04:37:09;;;;;;;4.55;1.80;;;18.80;1.00;;;;;;5113866;28;20431;-56
2023/07/03 04:39:36;;;;;;;6.20;1.77;;;18.80;1.00;;;;;;5116581;28;20946;-58
2023/07/03 04:42:03;;;;;;;7.10;1.80;;;18.90;1.00;;;;;;5116370;28;20416;-58
2023/07/03 04:44:33;;;;;;;4.40;1.70;;;18.90;1.00;;;;;;5115809;28;20526;-57
2023/07/03 04:47:05;;;;;;;4.53;1.80;;;18.90;1.00;;;;;;5115833;28;20424;-57
2023/07/03 04:49:33;;;;;;;4.75;2.03;;;18.90;2.30;;;;;;5111918;28;20423;-58
2023/07/03 04:52:00;;;;;;;6.95;2.60;;;18.90;8.10;;;;;;5111530;28;20484;-56
2023/07/03 04:54:27;;;;;;;6.75;2.38;;;18.90;8.90;;;;;;5111800;28;20422;-57
2023/07/03 04:56:55;;;;;;;6.78;2.00;;;18.90;11.50;;;;;;5113772;28;20515;-58
2023/07/03 04:59:22;;;;;;;7.37;2.60;;;18.90;21.40;;;;;;5114752;28;20439;-56
2023/07/03 05:01:49;;;;;;;9.52;2.80;;;19.00;18.80;;;;;;5111202;28;20428;-57
2023/07/03 05:04:17;;;;;;;4.20;1.83;;;19.00;13.30;;;;;;5113728;28;20424;-56
2023/07/03 05:06:46;;;;;;;4.63;2.30;;;19.00;23.40;;;;;;5112715;28;20512;-58
2023/07/03 05:09:13;;;;;;;5.00;2.47;;;19.00;20.50;;;;;;5111406;28;20893;-58
2023/07/03 05:11:40;;;;;;;5.88;2.17;;;19.00;22.60;;;;;;5111056;28;20469;-58
2023/07/03 05:14:07;;;;;;;3.90;1.80;;;19.10;29.50;;;;;;5112351;28;20435;-58
2023/07/03 05:16:34;;;;;;;5.88;1.90;;;19.10;21.90;;;;;;5113436;28;20432;-58
2023/07/03 05:19:01;;;;;;;3.55;1.40;;;19.10;24.80;;;;;;5113340;28;20851;-58
2023/07/03 05:21:29;;;;;;;4.65;1.60;;;19.30;5.30;;;;;;5114781;28;20420;-58
2023/07/03 05:23:56;;;;;;;4.45;1.85;;;19.40;10.30;;;;;;5114215;28;20999;-58
2023/07/03 05:26:24;;;;;;;4.90;1.58;;;19.50;1.00;;;;;;5114993;28;20847;-58
2023/07/03 05:28:51;;;;;;;5.45;1.80;;;19.60;1.00;;;;;;5112380;28;20428;-57
2023/07/03 05:31:22;;;;;;;3.90;1.60;;;19.60;1.00;;;;;;5110705;28;20863;-55
2023/07/03 05:33:49;;;;;;;6.40;1.92;;;19.60;1.00;;;;;;5109732;28;20506;-56
2023/07/03 05:36:16;;;;;;;4.18;1.80;;;19.60;1.00;;;;;;5112120;28;20485;-56
2023/07/03 05:38:44;;;;;;;4.80;2.10;;;19.60;1.00;;;;;;5113409;28;20762;-55
2023/07/03 05:41:11;;;;;;;6.13;1.50;;;19.80;1.00;;;;;;5114094;28;20443;-57
2023/07/03 05:43:38;;;;;;;5.53;2.17;;;19.80;1.00;;;;;;5112352;28;20428;-58
2023/07/03 05:46:05;;;;;;;5.70;2.20;;;19.80;1.00;;;;;;5110498;28;20741;-58
2023/07/03 05:48:32;;;;;;;4.77;1.50;;;19.80;1.00;;;;;;5112994;28;20424;-55
2023/07/03 05:50:59;;;;;;;4.20;1.70;;;19.80;1.00;;;;;;5112336;28;20416;-58
2023/07/03 05:53:26;;;;;;;5.47;1.70;;;19.80;1.00;;;;;;5111636;28;20431;-57
2023/07/03 05:55:56;;;;;;;4.13;1.42;;;19.70;1.00;;;;;;5112118;28;21099;-58
2023/07/03 05:58:23;;;;;;;6.25;1.50;;;19.70;1.00;;;;;;5112143;28;20424;-57
2023/07/03 06:00:50;;;;;;;5.95;1.70;;;19.70;1.00;;;;;;5113881;28;20428;-57
2023/07/03 06:03:18;;;;;;;2.22;1.20;;;19.80;1.00;;;;;;5111681;28;20732;-57
2023/07/03 06:05:46;;;;;;;4.65;1.52;;;19.90;1.00;;;;;;5112352;28;20807;-59
2023/07/03 06:08:13;;;;;;;3.40;1.50;;;19.80;1.00;;;;;;5111613;28;20416;-58
2023/07/03 06:10:41;;;;;;;7.25;1.70;;;19.80;1.00;;;;;;5110470;28;20417;-59
2023/07/03 06:13:09;;;;;;;4.80;1.60;;;20.00;1.00;;;;;;5122553;27;20866;-58
2023/07/03 06:15:36;;;;;;;5.80;1.60;;;20.10;1.00;;;;;;5124722;27;20487;-58
2023/07/03 06:18:05;;;;;;;4.25;1.90;;;20.30;1.00;;;;;;5129234;27;20483;-60
2023/07/03 06:20:33;;;;;;;5.45;1.50;;;20.40;1.00;;;;;;5132100;27;20430;-60
2023/07/03 06:23:00;;;;;;;4.32;1.70;;;20.30;1.00;;;;;;5116502;27;20783;-60
2023/07/03 06:25:27;;;;;;;4.23;1.70;;;20.40;1.00;;;;;;5130935;27;20434;-60
2023/07/03 06:27:54;;;;;;;5.05;2.13;;;20.40;1.00;;;;;;5129186;27;20493;-61
2023/07/03 06:30:22;;;;;;;3.88;1.58;;;20.40;1.00;;;;;;5122852;27;20877;-59
2023/07/03 06:32:49;;;;;;;4.10;1.50;;;20.40;1.00;;;;;;5129832;27;20526;-59
2023/07/03 06:35:18;;;;;;;3.30;1.40;;;20.50;1.00;;;;;;5131559;27;20454;-59
2023/07/03 06:37:45;;;;;;;3.08;1.58;;;20.50;1.00;;;;;;5132179;27;20438;-59
2023/07/03 06:40:15;;;;;;;5.18;1.60;;;20.50;1.00;;;;;;5132281;27;20730;-58
2023/07/03 06:42:42;;;;;;;3.30;1.30;;;20.60;1.00;;;;;;5131316;27;20725;-60
2023/07/03 06:45:10;;;;;;;4.25;1.67;;;20.80;1.00;;;;;;5118670;27;20494;-59
2023/07/03 06:47:39;;;;;;;6.30;1.40;;;20.80;1.00;;;;;;5133177;27;20434;-59
2023/07/03 06:50:07;;;;;;;5.00;1.60;;;20.80;1.00;;;;;;5131849;27;20475;-59
2023/07/03 06:52:36;;;;;;;5.40;1.55;;;20.80;1.00;;;;;;5130586;27;20726;-59
2023/07/03 06:55:03;;;;;;;4.65;1.30;;;20.80;1.00;;;;;;5129575;27;20954;-59
2023/07/03 06:57:30;;;;;;;4.15;1.52;;;20.70;1.00;;;;;;5128203;27;20414;-58
2023/07/03 06:59:57;;;;;;;4.53;1.30;;;20.80;1.00;;;;;;5127536;28;20418;-59
2023/07/03 07:02:24;;;;;;;3.30;1.50;;;20.80;1.00;;;;;;5125484;28;20418;-58
2023/07/03 07:04:56;;;;;;;4.65;1.20;;;21.00;1.00;;;;;;5126799;28;20838;-58
2023/07/03 07:07:23;;;;;;;2.67;1.20;;;21.20;1.00;;;;;;5114725;28;20438;-59
2023/07/03 07:09:50;;;;;;;2.33;1.20;;;21.30;1.00;;;;;;5128917;28;20460;-58
2023/07/03 07:12:17;;;;;;;5.28;1.35;;;21.20;1.00;;;;;;5130828;27;20437;-58
2023/07/03 07:14:44;;;;;;;4.95;1.40;;;21.30;1.00;;;;;;5136609;27;20414;-61
2023/07/03 07:17:11;;;;;;;2.40;1.35;;;21.40;1.00;;;;;;5135356;27;20427;-58
2023/07/03 07:19:38;;;;;;;4.53;1.40;;;21.40;1.00;;;;;;5122278;27;20430;-59
2023/07/03 07:22:06;;;;;;;4.10;2.00;;;21.30;1.00;;;;;;5135318;27;20732;-61
2023/07/03 07:24:33;;;;;;;3.85;1.30;;;21.30;1.00;;;;;;5135392;27;20948;-60
2023/07/03 07:27:02;;;;;;;2.83;1.40;;;21.10;1.00;;;;;;5134589;27;20983;-59
2023/07/03 07:29:29;;;;;;;4.30;1.45;;;21.10;1.00;;;;;;5134406;27;20455;-58
2023/07/03 07:31:57;;;;;;;4.30;1.30;;;21.20;1.00;;;;;;5135593;27;20479;-58
2023/07/03 07:34:25;;;;;;;3.10;1.30;;;21.20;1.00;;;;;;5128486;27;20434;-59
2023/07/03 07:36:52;;;;;;;4.13;1.40;;;21.30;1.00;;;;;;5134274;27;21022;-59
2023/07/03 07:39:21;;;;;;;3.40;1.60;;;21.30;1.00;;;;;;5119269;27;20415;-59
2023/07/03 07:41:51;;;;;;;3.55;1.20;;;21.20;1.00;;;;;;5116050;28;20423;-58
2023/07/03 07:44:18;;;;;;;2.80;1.40;;;21.20;1.00;;;;;;5115193;28;20420;-58
2023/07/03 07:46:45;;;;;;;4.07;1.52;;;21.30;1.00;;;;;;5113367;28;20423;-59
2023/07/03 07:49:12;;;;;;;2.92;1.20;;;21.20;1.00;;;;;;5115224;27;20424;-58
2023/07/03 07:51:39;;;;;;;5.38;1.50;;;21.30;1.00;;;;;;5134587;27;20480;-60
2023/07/03 07:54:06;;;;;;;4.03;1.40;;;21.20;1.00;;;;;;5132061;27;20434;-58
2023/07/03 07:56:35;;;;;;;2.97;1.40;;;21.40;1.00;;;;;;5134029;27;20479;-58
2023/07/03 07:59:02;;;;;;;4.00;1.60;;;21.20;1.00;;;;;;5133587;27;20434;-59
2023/07/03 08:01:29;;;;;;;4.65;1.60;;;21.00;1.00;;;;;;5133168;27;20431;-61
2023/07/03 08:03:56;;;;;;;3.58;1.70;;;21.20;1.00;;;;;;5133637;27;20895;-60
2023/07/03 08:06:23;;;;;;;3.78;1.52;;;21.40;1.00;;;;;;5133180;27;20490;-60
2023/07/03 08:08:52;;;;;;;3.38;1.50;;;21.60;1.00;;;;;;5133566;27;20418;-60
2023/07/03 08:11:20;;;;;;;3.78;1.70;;;21.60;1.00;;;;;;5131113;27;20431;-62
2023/07/03 08:13:48;;;;;;;3.72;1.50;;;21.80;1.00;;;;;;5124477;27;20516;-61
2023/07/03 08:16:18;;;;;;;3.83;1.27;;;22.20;1.00;;;;;;5131948;27;20432;-61
2023/07/03 08:18:47;;;;;;;3.47;1.58;;;22.40;1.00;;;;;;5130706;27;20431;-60
2023/07/03 08:21:14;;;;;;;5.47;1.40;;;22.40;1.00;;;;;;5127095;27;20429;-58
2023/07/03 08:23:41;;;;;;;4.20;1.30;;;22.50;1.00;;;;;;5130891;27;20418;-61
2023/07/03 08:26:18;;;;;;;3.97;1.60;;;22.40;1.00;;;;;;5133536;27;20835;-61
2023/07/03 08:28:45;;;;;;;6.60;1.67;;;22.50;1.00;;;;;;5127007;27;20504;-60
2023/07/03 08:31:13;;;;;;;3.40;1.60;;;22.50;1.00;;;;;;5134740;27;20706;-60
2023/07/03 08:33:40;;;;;;;6.65;1.40;;;22.20;1.00;;;;;;5134765;27;20516;-62
2023/07/03 08:36:07;;;;;;;5.18;1.42;;;22.00;1.00;;;;;;5134418;27;20419;-61
2023/07/03 08:38:34;;;;;;;4.28;1.40;;;22.20;1.00;;;;;;5131328;27;20430;-59
2023/07/03 08:41:02;;;;;;;4.35;1.30;;;22.10;1.00;;;;;;5131296;27;20479;-61
2023/07/03 08:43:33;;;;;;;5.05;1.40;;;22.10;1.00;;;;;;5132030;27;20426;-61
2023/07/03 08:46:03;;;;;;;3.20;1.50;;;22.10;1.00;;;;;;5135080;27;21106;-61
2023/07/03 08:48:35;;;;;;;3.92;1.40;;;22.20;1.00;;;;;;5126602;27;20528;-61
2023/07/03 08:51:06;;;;;;;5.00;1.70;;;22.10;1.00;;;;;;5129559;27;20426;-59
2023/07/03 08:53:37;;;;;;;3.55;1.50;;;22.10;1.00;;;;;;5126179;27;20828;-59
2023/07/03 08:56:11;;;;;;;3.90;1.30;;;22.30;1.00;;;;;;5128369;27;20492;-58
2023/07/03 08:58:38;;;;;;;4.15;1.55;;;22.40;1.00;;;;;;5132034;27;20463;-58
2023/07/03 09:01:15;;;;;;;5.05;2.00;;;22.40;1.00;;;;;;5133687;27;20469;-58
2023/07/03 09:03:54;;;;;;;3.97;1.58;;;22.40;1.00;;;;;;5130606;27;21019;-58
2023/07/03 09:06:26;;;;;;;4.68;1.50;;;22.20;1.00;;;;;;5132323;27;20682;-57
2023/07/03 09:09:03;;;;;;;3.72;1.40;;;22.40;1.00;;;;;;5130390;27;20460;-57
2023/07/03 09:11:32;;;;;;;4.10;1.70;;;22.60;1.00;;;;;;5130002;27;20422;-57
2023/07/03 09:14:03;;;;;;;2.97;1.33;;;22.40;1.00;;;;;;5132679;27;20779;-57
2023/07/03 09:16:30;;;;;;;4.22;1.70;;;22.30;1.00;;;;;;5116253;27;21447;-56
2023/07/03 09:19:03;;;;;;;3.78;1.50;;;22.20;1.00;;;;;;5103702;28;20515;-58
2023/07/03 09:21:33;;;;;;;6.20;1.75;;;22.20;1.00;;;;;;5112674;28;20446;-57
2023/07/03 09:24:06;;;;;;;4.63;1.58;;;22.00;1.00;;;;;;5113600;28;20715;-57
2023/07/03 09:26:38;;;;;;;2.83;1.30;;;22.00;1.00;;;;;;5112295;28;20488;-57
2023/07/03 09:29:06;;;;;;;4.60;1.60;;;22.10;1.00;;;;;;5121487;27;20442;-57
2023/07/03 09:31:33;;;;;;;3.47;1.40;;;22.50;1.00;;;;;;5132601;27;20430;-58
2023/07/03 09:34:01;;;;;;;3.33;1.60;;;22.70;1.00;;;;;;5118414;27;20841;-58
2023/07/03 09:36:34;;;;;;;5.82;1.70;;;22.60;1.00;;;;;;5132520;27;20906;-58
2023/07/03 09:39:08;;;;;;;3.13;1.30;;;22.80;1.00;;;;;;5129355;27;20426;-58
2023/07/03 09:41:36;;;;;;;3.17;1.40;;;23.10;1.00;;;;;;5128579;27;20470;-58
2023/07/03 09:44:07;;;;;;;3.85;1.25;;;23.30;1.00;;;;;;5123794;27;20445;-59
2023/07/03 09:46:34;;;;;;;3.50;1.10;;;23.40;1.00;;;;;;5132790;27;20468;-58
2023/07/03 09:49:05;;;;;;;1.90;1.10;;;23.50;1.00;;;;;;5127150;27;20410;-59
2023/07/03 09:51:33;;;;;;;4.45;1.25;;;23.50;1.00;;;;;;5130270;27;20627;-59
2023/07/03 09:54:07;;;;;;;4.32;1.10;;;23.40;1.00;;;;;;5130528;27;20434;-59
2023/07/03 09:56:35;;;;;;;4.63;1.30;;;23.40;1.00;;;;;;5129538;27;20429;-59
2023/07/03 09:59:04;;;;;;;2.60;1.23;;;23.30;1.00;;;;;;5128917;27;20422;-59
2023/07/03 10:01:33;;;;;;;2.65;1.15;;;23.00;1.00;;;;;;5127757;27;20907;-59
2023/07/03 10:04:07;;;;;;;2.30;1.00;;;23.00;1.00;;;;;;5124772;27;20530;-59
2023/07/03 10:06:35;;;;;;;3.03;1.20;;;22.90;1.00;;;;;;5113990;27;20881;-59
2023/07/03 10:09:05;;;;;;;3.10;1.05;;;23.00;1.00;;;;;;5128779;27;20918;-59
2023/07/03 10:11:44;;;;;;;2.30;1.00;;;23.10;1.00;;;;;;5126953;27;20478;-60
2023/07/03 10:14:18;;;;;;;2.25;0.90;;;23.30;1.00;;;;;;5112661;27;20601;-59
2023/07/03 10:16:46;;;;;;;2.50;1.00;;;23.30;1.00;;;;;;5124198;27;20478;-58
2023/07/03 10:19:15;;;;;;;3.10;1.25;;;23.30;1.00;;;;;;5126984;27;20647;-58
2023/07/03 10:21:44;;;;;;;4.75;1.30;;;23.40;1.00;;;;;;5124790;27;21218;-59
2023/07/03 10:24:13;;;;;;;3.60;1.10;;;23.60;1.00;;;;;;5130349;27;20418;-59
2023/07/03 10:26:47;;;;;;;2.80;1.20;;;23.60;1.00;;;;;;5130523;27;20461;-59
2023/07/03 10:29:20;;;;;;;4.70;1.00;;;23.30;1.00;;;;;;5127530;27;20690;-59
2023/07/03 10:31:51;;;;;;;2.20;1.10;;;23.20;1.00;;;;;;5127219;27;20776;-59
2023/07/03 10:34:24;;;;;;;2.70;1.00;;;23.10;1.00;;;;;;5129273;27;20422;-59
2023/07/03 10:36:59;;;;;;;2.00;0.90;;;23.50;1.00;;;;;;5130129;27;20425;-59
2023/07/03 10:39:36;;;;;;;2.92;0.90;;;24.00;1.00;;;;;;5128054;27;20418;-59
2023/07/03 10:42:06;;;;;;;3.20;0.90;;;24.30;1.00;;;;;;5130758;27;20422;-59
2023/07/03 10:44:38;;;;;;;3.08;1.20;;;24.10;1.00;;;;;;5131252;27;20433;-62
2023/07/03 10:47:13;;;;;;;1.83;0.80;;;24.20;1.00;;;;;;5130979;27;20783;-59
2023/07/03 10:49:41;;;;;;;2.75;0.85;;;24.50;1.00;;;;;;5131498;27;20682;-59
2023/07/03 10:52:18;;;;;;;1.60;0.80;;;25.10;1.00;;;;;;5131737;27;20526;-60
2023/07/03 10:54:52;;;;;;;1.48;0.80;;;25.50;1.00;;;;;;5131058;27;20414;-60
2023/07/03 10:57:24;;;;;;;1.73;0.70;;;25.40;1.00;;;;;;5132315;27;21004;-59
2023/07/03 10:59:56;;;;;;;1.75;0.70;;;25.30;1.00;;;;;;5132062;28;20433;-59
2023/07/03 11:02:34;;;;;;;1.63;0.70;;;25.70;1.00;;;;;;5129391;28;20715;-60
2023/07/03 11:05:12;;;;;;;4.40;0.70;;;25.90;1.00;;;;;;5130858;28;20430;-59
2023/07/03 11:07:47;;;;;;;2.00;0.63;;;25.50;1.00;;;;;;5131830;28;20841;-60
2023/07/03 11:10:22;;;;;;;1.73;0.75;;;25.10;1.00;;;;;;5116312;28;20436;-61
2023/07/03 11:12:54;;;;;;;1.30;0.70;;;24.90;1.00;;;;;;5110382;28;20416;-59
2023/07/03 11:15:32;;;;;;;1.00;0.60;;;25.30;1.00;;;;;;5110502;28;20900;-59
2023/07/03 11:18:13;;;;;;;1.10;0.70;;;25.10;1.00;;;;;;5111631;28;20428;-59
2023/07/03 11:20:48;;;;;;;1.40;0.70;;;25.20;1.00;;;;;;5114714;28;20873;-59
2023/07/03 11:23:23;;;;;;;1.25;0.70;;;25.00;1.00;;;;;;5131209;28;20500;-61
2023/07/03 11:25:56;;;;;;;1.10;0.60;;;24.80;1.00;;;;;;5124467;28;20438;-61
2023/07/03 11:28:36;;;;;;;1.30;0.70;;;24.80;1.00;;;;;;5131130;28;20475;-60
2023/07/03 11:31:04;;;;;;;1.40;0.70;;;25.10;1.00;;;;;;5118040;28;20476;-58
2023/07/03 11:33:34;;;;;;;1.80;0.80;;;25.30;1.00;;;;;;5109078;28;20423;-60
2023/07/03 11:36:03;;;;;;;1.23;0.60;;;25.10;1.00;;;;;;5101287;28;20424;-60
2023/07/03 11:38:30;;;;;;;1.40;0.80;;;24.90;1.00;;;;;;5109899;28;20473;-60
2023/07/03 11:41:09;;;;;;;1.77;0.80;;;24.90;1.00;;;;;;5106737;28;20481;-59
2023/07/03 11:43:42;;;;;;;2.10;0.70;;;25.10;1.00;;;;;;5109160;28;20434;-60
2023/07/03 11:46:21;;;;;;;1.90;0.80;;;25.70;1.00;;;;;;5129853;28;20427;-61
2023/07/03 11:48:51;;;;;;;1.80;0.80;;;25.90;1.00;;;;;;5122143;27;20511;-60
2023/07/03 11:51:32;;;;;;;1.90;0.80;;;25.90;1.00;;;;;;5109291;28;20882;-60
2023/07/03 11:54:00;;;;;;;2.33;0.90;;;25.60;1.00;;;;;;5127761;28;20846;-59
2023/07/03 11:56:49;;;;;;;3.20;1.00;;;25.60;1.00;;;;;;5127910;28;20430;-60
2023/07/03 11:59:31;;;;;;;2.47;0.90;;;25.80;1.00;;;;;;5131299;27;20868;-60
2023/07/03 12:02:46;;;;;;;2.60;0.90;;;25.70;1.00;;;;;;5131272;27;20427;-59
2023/07/03 12:05:47;;;;;;;2.40;0.93;;;25.60;1.00;;;;;;5135559;27;20524;-61
2023/07/03 12:08:44;;;;;;;2.08;0.90;;;25.60;1.00;;;;;;5129097;27;20426;-60
2023/07/03 12:11:14;;;;;;;3.47;0.95;;;25.20;1.00;;;;;;5136490;27;20520;-60
2023/07/03 12:13:51;;;;;;;2.08;0.90;;;25.30;1.00;;;;;;5127557;27;20481;-60
2023/07/03 12:16:29;;;;;;;3.20;0.90;;;25.30;1.00;;;;;;5131775;27;20419;-61
2023/07/03 12:19:03;;;;;;;1.90;0.90;;;25.60;1.00;;;;;;5131407;27;20434;-61
2023/07/03 12:21:44;;;;;;;2.05;0.90;;;25.80;1.00;;;;;;5134825;27;20438;-61
2023/07/03 12:24:25;;;;;;;3.08;1.00;;;26.20;1.00;;;;;;5134503;27;20430;-61
2023/07/03 12:27:00;;;;;;;2.30;1.00;;;26.70;1.00;;;;;;5133809;27;20427;-59
2023/07/03 12:29:27;;;;;;;2.70;0.75;;;26.40;1.00;;;;;;5135831;27;20491;-59
2023/07/03 12:31:56;;;;;;;1.80;0.80;;;26.20;1.00;;;;;;5133735;27;20502;-58
2023/07/03 12:34:27;;;;;;;1.83;0.80;;;26.50;1.00;;;;;;5134281;27;20892;-59
2023/07/03 12:37:00;;;;;;;1.33;0.80;;;26.70;1.00;;;;;;5133058;27;20467;-58
2023/07/03 12:39:28;;;;;;;2.10;0.93;;;27.10;1.00;;;;;;5123724;27;20422;-58
2023/07/03 12:42:06;;;;;;;2.07;0.80;;;27.30;1.00;;;;;;5132096;27;20547;-59
2023/07/03 12:44:33;;;;;;;2.80;0.80;;;27.20;1.00;;;;;;5120680;27;20414;-59
2023/07/03 12:47:08;;;;;;;1.00;0.70;;;26.70;1.00;;;;;;5122699;27;20839;-60
2023/07/03 12:49:58;;;;;;;2.40;0.80;;;27.00;1.00;;;;;;5110429;28;20432;-60
2023/07/03 12:52:27;;;;;;;1.77;0.90;;;26.40;1.00;;;;;;5109138;28;20449;-59
2023/07/03 12:54:56;;;;;;;3.88;0.80;;;25.90;1.00;;;;;;5109994;28;20507;-59
2023/07/03 12:57:24;;;;;;;1.73;0.80;;;26.20;1.00;;;;;;5112203;28;20485;-59
2023/07/03 12:59:53;;;;;;;2.30;0.77;;;26.40;1.00;;;;;;5114027;28;21007;-59
2023/07/03 13:02:22;;;;;;;2.05;0.77;;;26.80;1.00;;;;;;5113123;28;20432;-59
2023/07/03 13:04:56;;;;;;;0.82;0.60;;;26.80;1.00;;;;;;5114339;28;20423;-59
2023/07/03 13:07:23;;;;;;;1.88;0.90;;;27.60;1.00;;;;;;5113118;28;20713;-60
2023/07/03 13:09:51;;;;;;;1.67;0.70;;;28.20;1.00;;;;;;5112351;28;20424;-60